sensor_id;sensor_type;location;lat;lon;timestamp;temperature;humidity
16863;DHT22;52193;48.216;-1.698;2023-03-14T00:02:31;15.40;99.90
16863;DHT22;52193;48.216;-1.698;2023-03-14T00:04:59;15.30;99.90
16863;DHT22;52193;48.216;-1.698;2023-03-14T00:07:27;15.40;99.90
16863;DHT22;52193;48.216;-1.698;2023-03-14T00:09:59;15.40;99.90
16863;DHT22;52193;48.216;-1.698;2023-03-14T00:12:26;15.40;99.90
16863;DHT22;52193;48.216;-1.698;2023-03-14T00:15:02;15.40;99.90
16863;DHT22;52193;48.216;-1.698;2023-03-14T00:17:30;15.40;99.90
16863;DHT22;52193;48.216;-1.698;2023-03-14T00:19:59;15.40;99.90
16863;DHT22;52193;48.216;-1.698;2023-03-14T00:22:30;15.40;99.90
16863;DHT22;52193;48.216;-1.698;2023-03-14T00:24:57;15.30;99.90
16863;DHT22;52193;48.216;-1.698;2023-03-14T00:27:23;15.30;99.90
16863;DHT22;52193;48.216;-1.698;2023-03-14T00:29:50;15.30;99.90
16863;DHT22;52193;48.216;-1.698;2023-03-14T00:32:17;15.30;99.90
16863;DHT22;52193;48.216;-1.698;2023-03-14T00:34:44;15.30;99.90
16863;DHT22;52193;48.216;-1.698;2023-03-14T00:37:13;15.30;99.90
16863;DHT22;52193;48.216;-1.698;2023-03-14T00:39:40;15.30;99.90
16863;DHT22;52193;48.216;-1.698;2023-03-14T00:42:07;15.30;99.90
16863;DHT22;52193;48.216;-1.698;2023-03-14T00:44:33;15.20;99.90
16863;DHT22;52193;48.216;-1.698;2023-03-14T00:47:01;15.20;99.90
16863;DHT22;52193;48.216;-1.698;2023-03-14T00:49:27;15.20;99.90
16863;DHT22;52193;48.216;-1.698;2023-03-14T00:51:54;15.10;99.90
16863;DHT22;52193;48.216;-1.698;2023-03-14T00:54:23;15.00;99.90
16863;DHT22;52193;48.216;-1.698;2023-03-14T00:56:50;15.00;99.90
16863;DHT22;52193;48.216;-1.698;2023-03-14T00:59:16;14.80;99.90
16863;DHT22;52193;48.216;-1.698;2023-03-14T01:01:44;14.80;99.90
16863;DHT22;52193;48.216;-1.698;2023-03-14T01:04:10;14.80;99.90
16863;DHT22;52193;48.216;-1.698;2023-03-14T01:06:38;14.70;99.90
16863;DHT22;52193;48.216;-1.698;2023-03-14T01:09:06;14.60;99.90
16863;DHT22;52193;48.216;-1.698;2023-03-14T01:11:35;14.40;99.90
16863;DHT22;52193;48.216;-1.698;2023-03-14T01:14:03;14.30;99.90
16863;DHT22;52193;48.216;-1.698;2023-03-14T01:16:32;14.30;99.90
16863;DHT22;52193;48.216;-1.698;2023-03-14T01:18:59;14.20;99.90
16863;DHT22;52193;48.216;-1.698;2023-03-14T01:21:28;14.20;99.90
16863;DHT22;52193;48.216;-1.698;2023-03-14T01:23:57;14.20;99.90
16863;DHT22;52193;48.216;-1.698;2023-03-14T01:26:25;14.10;99.90
16863;DHT22;52193;48.216;-1.698;2023-03-14T01:28:55;14.10;99.90
16863;DHT22;52193;48.216;-1.698;2023-03-14T01:31:22;14.10;99.90
16863;DHT22;52193;48.216;-1.698;2023-03-14T01:33:51;14.00;99.90
16863;DHT22;52193;48.216;-1.698;2023-03-14T01:36:18;13.90;99.90
16863;DHT22;52193;48.216;-1.698;2023-03-14T01:38:45;13.90;99.90
16863;DHT22;52193;48.216;-1.698;2023-03-14T01:41:14;13.90;99.90
16863;DHT22;52193;48.216;-1.698;2023-03-14T01:43:42;13.80;99.90
16863;DHT22;52193;48.216;-1.698;2023-03-14T01:46:22;13.70;99.90
16863;DHT22;52193;48.216;-1.698;2023-03-14T01:49:03;13.70;99.90
16863;DHT22;52193;48.216;-1.698;2023-03-14T01:51:36;13.70;99.90
16863;DHT22;52193;48.216;-1.698;2023-03-14T01:54:10;13.80;99.90
16863;DHT22;52193;48.216;-1.698;2023-03-14T01:56:39;13.80;99.90
16863;DHT22;52193;48.216;-1.698;2023-03-14T01:59:08;13.70;99.90
16863;DHT22;52193;48.216;-1.698;2023-03-14T02:01:38;13.70;99.90
16863;DHT22;52193;48.216;-1.698;2023-03-14T02:04:07;13.70;99.90
16863;DHT22;52193;48.216;-1.698;2023-03-14T02:06:42;13.60;99.90
16863;DHT22;52193;48.216;-1.698;2023-03-14T02:09:10;13.60;99.90
16863;DHT22;52193;48.216;-1.698;2023-03-14T02:11:37;13.60;99.90
16863;DHT22;52193;48.216;-1.698;2023-03-14T02:14:05;13.60;99.90
16863;DHT22;52193;48.216;-1.698;2023-03-14T02:16:32;13.60;99.90
16863;DHT22;52193;48.216;-1.698;2023-03-14T02:19:03;13.70;99.90
16863;DHT22;52193;48.216;-1.698;2023-03-14T02:21:40;13.60;99.90
16863;DHT22;52193;48.216;-1.698;2023-03-14T02:24:17;13.50;99.90
16863;DHT22;52193;48.216;-1.698;2023-03-14T02:29:48;13.60;99.90
16863;DHT22;52193;48.216;-1.698;2023-03-14T02:32:17;13.70;99.90
16863;DHT22;52193;48.216;-1.698;2023-03-14T02:34:49;13.60;99.90
16863;DHT22;52193;48.216;-1.698;2023-03-14T02:37:18;13.60;99.90
16863;DHT22;52193;48.216;-1.698;2023-03-14T02:39:46;13.50;99.90
16863;DHT22;52193;48.216;-1.698;2023-03-14T02:42:14;13.50;99.90
16863;DHT22;52193;48.216;-1.698;2023-03-14T02:44:51;13.50;99.90
16863;DHT22;52193;48.216;-1.698;2023-03-14T02:47:21;13.50;99.90
16863;DHT22;52193;48.216;-1.698;2023-03-14T02:49:49;13.50;99.90
16863;DHT22;52193;48.216;-1.698;2023-03-14T02:52:17;13.40;99.90
16863;DHT22;52193;48.216;-1.698;2023-03-14T02:54:44;13.40;99.90
16863;DHT22;52193;48.216;-1.698;2023-03-14T02:57:11;13.40;99.90
16863;DHT22;52193;48.216;-1.698;2023-03-14T02:59:38;13.30;99.90
16863;DHT22;52193;48.216;-1.698;2023-03-14T03:02:06;13.30;99.90
16863;DHT22;52193;48.216;-1.698;2023-03-14T03:04:33;13.20;99.90
16863;DHT22;52193;48.216;-1.698;2023-03-14T03:07:00;13.20;99.90
16863;DHT22;52193;48.216;-1.698;2023-03-14T03:09:27;13.20;99.90
16863;DHT22;52193;48.216;-1.698;2023-03-14T03:11:54;13.10;99.90
16863;DHT22;52193;48.216;-1.698;2023-03-14T03:14:21;13.20;99.90
16863;DHT22;52193;48.216;-1.698;2023-03-14T03:16:48;13.10;99.90
16863;DHT22;52193;48.216;-1.698;2023-03-14T03:19:16;13.10;99.90
16863;DHT22;52193;48.216;-1.698;2023-03-14T03:21:43;13.10;99.90
16863;DHT22;52193;48.216;-1.698;2023-03-14T03:24:10;13.00;99.90
16863;DHT22;52193;48.216;-1.698;2023-03-14T03:26:37;13.10;99.90
16863;DHT22;52193;48.216;-1.698;2023-03-14T03:29:04;13.10;99.90
16863;DHT22;52193;48.216;-1.698;2023-03-14T03:31:31;13.10;99.90
16863;DHT22;52193;48.216;-1.698;2023-03-14T03:33:58;13.00;99.90
16863;DHT22;52193;48.216;-1.698;2023-03-14T03:36:27;13.00;99.90
16863;DHT22;52193;48.216;-1.698;2023-03-14T03:38:54;13.00;99.90
16863;DHT22;52193;48.216;-1.698;2023-03-14T03:41:20;13.00;99.90
16863;DHT22;52193;48.216;-1.698;2023-03-14T03:43:47;13.10;99.90
16863;DHT22;52193;48.216;-1.698;2023-03-14T03:46:14;13.00;99.90
16863;DHT22;52193;48.216;-1.698;2023-03-14T03:48:41;13.00;99.90
16863;DHT22;52193;48.216;-1.698;2023-03-14T03:51:12;13.00;99.90
16863;DHT22;52193;48.216;-1.698;2023-03-14T03:53:41;13.00;99.90
16863;DHT22;52193;48.216;-1.698;2023-03-14T03:56:09;13.00;99.90
16863;DHT22;52193;48.216;-1.698;2023-03-14T03:58:36;12.90;99.90
16863;DHT22;52193;48.216;-1.698;2023-03-14T04:01:05;12.90;99.90
16863;DHT22;52193;48.216;-1.698;2023-03-14T04:03:33;13.00;99.90
16863;DHT22;52193;48.216;-1.698;2023-03-14T04:06:01;13.00;99.90
16863;DHT22;52193;48.216;-1.698;2023-03-14T04:08:29;13.00;99.90
16863;DHT22;52193;48.216;-1.698;2023-03-14T04:10:58;13.00;99.90
16863;DHT22;52193;48.216;-1.698;2023-03-14T04:13:26;12.90;99.90
16863;DHT22;52193;48.216;-1.698;2023-03-14T04:15:54;12.90;99.90
16863;DHT22;52193;48.216;-1.698;2023-03-14T04:18:21;12.80;99.90
16863;DHT22;52193;48.216;-1.698;2023-03-14T04:20:51;12.70;99.90
16863;DHT22;52193;48.216;-1.698;2023-03-14T04:23:18;12.60;99.90
16863;DHT22;52193;48.216;-1.698;2023-03-14T04:25:45;12.60;99.90
16863;DHT22;52193;48.216;-1.698;2023-03-14T04:28:14;12.60;99.90
16863;DHT22;52193;48.216;-1.698;2023-03-14T04:30:41;12.50;99.90
16863;DHT22;52193;48.216;-1.698;2023-03-14T04:33:08;12.50;99.90
16863;DHT22;52193;48.216;-1.698;2023-03-14T04:35:35;12.50;99.90
16863;DHT22;52193;48.216;-1.698;2023-03-14T04:38:02;12.50;99.90
16863;DHT22;52193;48.216;-1.698;2023-03-14T04:40:29;12.50;99.90
16863;DHT22;52193;48.216;-1.698;2023-03-14T04:42:56;12.40;99.90
16863;DHT22;52193;48.216;-1.698;2023-03-14T04:45:24;12.40;99.90
16863;DHT22;52193;48.216;-1.698;2023-03-14T04:47:51;12.40;99.90
16863;DHT22;52193;48.216;-1.698;2023-03-14T04:50:18;12.50;99.90
16863;DHT22;52193;48.216;-1.698;2023-03-14T04:52:45;12.50;99.90
16863;DHT22;52193;48.216;-1.698;2023-03-14T04:55:12;12.40;99.90
16863;DHT22;52193;48.216;-1.698;2023-03-14T04:57:39;12.40;99.90
16863;DHT22;52193;48.216;-1.698;2023-03-14T05:00:07;12.40;99.90
16863;DHT22;52193;48.216;-1.698;2023-03-14T05:02:36;12.40;99.90
16863;DHT22;52193;48.216;-1.698;2023-03-14T05:05:03;12.40;99.90
16863;DHT22;52193;48.216;-1.698;2023-03-14T05:07:30;12.30;99.90
16863;DHT22;52193;48.216;-1.698;2023-03-14T05:09:57;12.30;99.90
16863;DHT22;52193;48.216;-1.698;2023-03-14T05:12:24;12.30;99.90
16863;DHT22;52193;48.216;-1.698;2023-03-14T05:14:51;12.30;99.90
16863;DHT22;52193;48.216;-1.698;2023-03-14T05:17:18;12.20;99.90
16863;DHT22;52193;48.216;-1.698;2023-03-14T05:19:46;12.10;99.90
16863;DHT22;52193;48.216;-1.698;2023-03-14T05:22:13;12.10;99.90
16863;DHT22;52193;48.216;-1.698;2023-03-14T05:24:40;12.10;99.90
16863;DHT22;52193;48.216;-1.698;2023-03-14T05:27:07;12.00;99.90
16863;DHT22;52193;48.216;-1.698;2023-03-14T05:29:34;12.00;99.90
16863;DHT22;52193;48.216;-1.698;2023-03-14T05:32:01;12.00;99.90
16863;DHT22;52193;48.216;-1.698;2023-03-14T05:34:28;12.10;99.90
16863;DHT22;52193;48.216;-1.698;2023-03-14T05:36:56;12.10;99.90
16863;DHT22;52193;48.216;-1.698;2023-03-14T05:39:23;12.10;99.90
16863;DHT22;52193;48.216;-1.698;2023-03-14T05:41:50;12.10;99.90
16863;DHT22;52193;48.216;-1.698;2023-03-14T05:44:19;12.10;99.90
16863;DHT22;52193;48.216;-1.698;2023-03-14T05:46:46;12.00;99.90
16863;DHT22;52193;48.216;-1.698;2023-03-14T05:49:13;12.00;99.90
16863;DHT22;52193;48.216;-1.698;2023-03-14T05:51:40;12.00;99.90
16863;DHT22;52193;48.216;-1.698;2023-03-14T05:54:08;12.10;99.90
16863;DHT22;52193;48.216;-1.698;2023-03-14T05:56:35;12.00;99.90
16863;DHT22;52193;48.216;-1.698;2023-03-14T05:59:02;12.00;99.90
16863;DHT22;52193;48.216;-1.698;2023-03-14T06:01:29;11.90;99.90
16863;DHT22;52193;48.216;-1.698;2023-03-14T06:03:56;11.90;99.90
16863;DHT22;52193;48.216;-1.698;2023-03-14T06:06:23;11.90;99.90
16863;DHT22;52193;48.216;-1.698;2023-03-14T06:08:50;11.90;99.90
16863;DHT22;52193;48.216;-1.698;2023-03-14T06:11:18;11.90;99.90
16863;DHT22;52193;48.216;-1.698;2023-03-14T06:13:45;11.90;99.90
16863;DHT22;52193;48.216;-1.698;2023-03-14T06:16:12;11.90;99.90
16863;DHT22;52193;48.216;-1.698;2023-03-14T06:18:40;11.90;99.90
16863;DHT22;52193;48.216;-1.698;2023-03-14T06:21:07;11.90;99.90
16863;DHT22;52193;48.216;-1.698;2023-03-14T06:23:34;11.80;99.90
16863;DHT22;52193;48.216;-1.698;2023-03-14T06:26:01;11.80;99.90
16863;DHT22;52193;48.216;-1.698;2023-03-14T06:28:29;11.80;99.90
16863;DHT22;52193;48.216;-1.698;2023-03-14T06:30:58;11.80;99.90
16863;DHT22;52193;48.216;-1.698;2023-03-14T06:33:25;11.80;99.90
16863;DHT22;52193;48.216;-1.698;2023-03-14T06:35:52;11.80;99.90
16863;DHT22;52193;48.216;-1.698;2023-03-14T06:38:19;11.80;99.90
16863;DHT22;52193;48.216;-1.698;2023-03-14T06:40:45;11.80;99.90
16863;DHT22;52193;48.216;-1.698;2023-03-14T06:43:12;11.80;99.90
16863;DHT22;52193;48.216;-1.698;2023-03-14T06:45:41;11.80;99.90
16863;DHT22;52193;48.216;-1.698;2023-03-14T06:48:07;11.70;99.90
16863;DHT22;52193;48.216;-1.698;2023-03-14T06:50:35;11.70;99.90
16863;DHT22;52193;48.216;-1.698;2023-03-14T06:53:02;11.70;99.90
16863;DHT22;52193;48.216;-1.698;2023-03-14T06:55:29;11.70;99.90
16863;DHT22;52193;48.216;-1.698;2023-03-14T06:57:55;11.80;99.90
16863;DHT22;52193;48.216;-1.698;2023-03-14T07:00:23;11.70;99.90
16863;DHT22;52193;48.216;-1.698;2023-03-14T07:02:51;11.80;99.90
16863;DHT22;52193;48.216;-1.698;2023-03-14T07:05:18;11.70;99.90
16863;DHT22;52193;48.216;-1.698;2023-03-14T07:07:45;11.80;99.90
16863;DHT22;52193;48.216;-1.698;2023-03-14T07:10:12;11.80;99.90
16863;DHT22;52193;48.216;-1.698;2023-03-14T07:12:39;11.80;99.90
16863;DHT22;52193;48.216;-1.698;2023-03-14T07:15:07;11.80;99.90
16863;DHT22;52193;48.216;-1.698;2023-03-14T07:17:34;11.80;99.90
16863;DHT22;52193;48.216;-1.698;2023-03-14T07:20:02;11.80;99.90
16863;DHT22;52193;48.216;-1.698;2023-03-14T07:22:30;11.80;99.90
16863;DHT22;52193;48.216;-1.698;2023-03-14T07:24:57;11.80;99.90
16863;DHT22;52193;48.216;-1.698;2023-03-14T07:27:24;11.90;99.90
16863;DHT22;52193;48.216;-1.698;2023-03-14T07:29:51;11.90;99.90
16863;DHT22;52193;48.216;-1.698;2023-03-14T07:32:18;11.90;99.90
16863;DHT22;52193;48.216;-1.698;2023-03-14T07:34:45;11.90;99.90
16863;DHT22;52193;48.216;-1.698;2023-03-14T07:37:13;11.90;99.90
16863;DHT22;52193;48.216;-1.698;2023-03-14T07:39:40;11.90;99.90
16863;DHT22;52193;48.216;-1.698;2023-03-14T07:42:07;11.90;99.90
16863;DHT22;52193;48.216;-1.698;2023-03-14T07:44:34;12.00;99.90
16863;DHT22;52193;48.216;-1.698;2023-03-14T07:47:01;12.00;99.90
16863;DHT22;52193;48.216;-1.698;2023-03-14T07:49:28;12.00;99.90
16863;DHT22;52193;48.216;-1.698;2023-03-14T07:51:55;11.90;99.90
16863;DHT22;52193;48.216;-1.698;2023-03-14T07:54:23;11.90;99.90
16863;DHT22;52193;48.216;-1.698;2023-03-14T07:56:50;11.90;99.90
16863;DHT22;52193;48.216;-1.698;2023-03-14T07:59:17;11.90;99.90
16863;DHT22;52193;48.216;-1.698;2023-03-14T08:01:44;11.90;99.90
16863;DHT22;52193;48.216;-1.698;2023-03-14T08:04:11;11.80;99.90
16863;DHT22;52193;48.216;-1.698;2023-03-14T08:06:38;11.80;99.90
16863;DHT22;52193;48.216;-1.698;2023-03-14T08:09:05;11.90;99.90
16863;DHT22;52193;48.216;-1.698;2023-03-14T08:11:34;11.90;99.90
16863;DHT22;52193;48.216;-1.698;2023-03-14T08:14:01;12.00;99.90
16863;DHT22;52193;48.216;-1.698;2023-03-14T08:16:28;12.00;99.90
16863;DHT22;52193;48.216;-1.698;2023-03-14T08:18:55;11.90;99.90
16863;DHT22;52193;48.216;-1.698;2023-03-14T08:21:23;11.80;99.90
16863;DHT22;52193;48.216;-1.698;2023-03-14T08:23:50;11.80;99.90
16863;DHT22;52193;48.216;-1.698;2023-03-14T08:26:16;11.80;99.90
16863;DHT22;52193;48.216;-1.698;2023-03-14T08:28:45;11.80;99.90
16863;DHT22;52193;48.216;-1.698;2023-03-14T08:31:12;11.80;99.90
16863;DHT22;52193;48.216;-1.698;2023-03-14T08:33:39;11.80;99.90
16863;DHT22;52193;48.216;-1.698;2023-03-14T08:36:07;11.80;99.90
16863;DHT22;52193;48.216;-1.698;2023-03-14T08:38:35;11.80;99.90
16863;DHT22;52193;48.216;-1.698;2023-03-14T08:41:02;11.80;99.90
16863;DHT22;52193;48.216;-1.698;2023-03-14T08:43:30;11.90;99.90
16863;DHT22;52193;48.216;-1.698;2023-03-14T08:46:00;11.90;99.90
16863;DHT22;52193;48.216;-1.698;2023-03-14T08:48:27;12.00;99.90
16863;DHT22;52193;48.216;-1.698;2023-03-14T08:50:55;12.10;99.90
16863;DHT22;52193;48.216;-1.698;2023-03-14T08:53:22;12.10;99.90
16863;DHT22;52193;48.216;-1.698;2023-03-14T08:55:52;12.10;99.90
16863;DHT22;52193;48.216;-1.698;2023-03-14T08:58:20;12.10;99.90
16863;DHT22;52193;48.216;-1.698;2023-03-14T09:00:48;12.10;99.90
16863;DHT22;52193;48.216;-1.698;2023-03-14T09:03:16;12.10;99.90
16863;DHT22;52193;48.216;-1.698;2023-03-14T09:05:43;12.10;99.90
16863;DHT22;52193;48.216;-1.698;2023-03-14T09:08:10;12.20;99.90
16863;DHT22;52193;48.216;-1.698;2023-03-14T09:10:37;12.20;99.90
16863;DHT22;52193;48.216;-1.698;2023-03-14T09:13:05;12.10;99.90
16863;DHT22;52193;48.216;-1.698;2023-03-14T09:15:31;12.10;99.90
16863;DHT22;52193;48.216;-1.698;2023-03-14T09:17:58;12.10;99.90
16863;DHT22;52193;48.216;-1.698;2023-03-14T09:20:27;12.20;99.90
16863;DHT22;52193;48.216;-1.698;2023-03-14T09:22:54;12.20;99.90
16863;DHT22;52193;48.216;-1.698;2023-03-14T09:25:21;12.30;99.90
16863;DHT22;52193;48.216;-1.698;2023-03-14T09:27:48;12.20;99.90
16863;DHT22;52193;48.216;-1.698;2023-03-14T09:30:15;12.30;99.90
16863;DHT22;52193;48.216;-1.698;2023-03-14T09:32:42;12.40;99.90
16863;DHT22;52193;48.216;-1.698;2023-03-14T09:35:09;12.40;99.90
16863;DHT22;52193;48.216;-1.698;2023-03-14T09:37:38;12.40;99.90
16863;DHT22;52193;48.216;-1.698;2023-03-14T09:40:06;12.50;99.90
16863;DHT22;52193;48.216;-1.698;2023-03-14T09:42:37;12.60;99.90
16863;DHT22;52193;48.216;-1.698;2023-03-14T09:45:09;12.70;99.90
16863;DHT22;52193;48.216;-1.698;2023-03-14T09:47:37;12.70;99.90
16863;DHT22;52193;48.216;-1.698;2023-03-14T09:50:09;12.90;99.90
16863;DHT22;52193;48.216;-1.698;2023-03-14T09:52:39;13.00;99.90
16863;DHT22;52193;48.216;-1.698;2023-03-14T09:55:11;13.00;99.90
16863;DHT22;52193;48.216;-1.698;2023-03-14T09:57:39;12.90;99.90
16863;DHT22;52193;48.216;-1.698;2023-03-14T10:00:14;13.00;99.90
16863;DHT22;52193;48.216;-1.698;2023-03-14T10:02:47;13.00;99.90
16863;DHT22;52193;48.216;-1.698;2023-03-14T10:05:18;13.20;99.90
16863;DHT22;52193;48.216;-1.698;2023-03-14T10:07:47;13.30;99.90
16863;DHT22;52193;48.216;-1.698;2023-03-14T10:10:17;13.20;99.90
16863;DHT22;52193;48.216;-1.698;2023-03-14T10:12:46;13.30;99.90
16863;DHT22;52193;48.216;-1.698;2023-03-14T10:15:15;13.40;99.90
16863;DHT22;52193;48.216;-1.698;2023-03-14T10:17:50;13.50;99.90
16863;DHT22;52193;48.216;-1.698;2023-03-14T10:20:32;13.50;99.90
16863;DHT22;52193;48.216;-1.698;2023-03-14T10:23:02;13.70;99.90
16863;DHT22;52193;48.216;-1.698;2023-03-14T10:25:32;13.80;99.90
16863;DHT22;52193;48.216;-1.698;2023-03-14T10:28:00;13.70;99.90
16863;DHT22;52193;48.216;-1.698;2023-03-14T10:30:37;13.70;99.90
16863;DHT22;52193;48.216;-1.698;2023-03-14T10:33:11;13.60;99.90
16863;DHT22;52193;48.216;-1.698;2023-03-14T10:35:38;13.50;99.90
16863;DHT22;52193;48.216;-1.698;2023-03-14T10:38:12;13.50;99.90
16863;DHT22;52193;48.216;-1.698;2023-03-14T10:40:42;13.50;99.90
16863;DHT22;52193;48.216;-1.698;2023-03-14T10:43:16;13.60;99.90
16863;DHT22;52193;48.216;-1.698;2023-03-14T10:45:44;13.60;99.90
16863;DHT22;52193;48.216;-1.698;2023-03-14T10:48:20;13.60;99.90
16863;DHT22;52193;48.216;-1.698;2023-03-14T10:50:50;13.70;99.90
16863;DHT22;52193;48.216;-1.698;2023-03-14T10:53:21;13.80;99.90
16863;DHT22;52193;48.216;-1.698;2023-03-14T10:55:48;13.80;99.90
16863;DHT22;52193;48.216;-1.698;2023-03-14T10:58:25;14.00;99.90
16863;DHT22;52193;48.216;-1.698;2023-03-14T11:01:02;14.00;99.90
16863;DHT22;52193;48.216;-1.698;2023-03-14T11:03:34;14.10;99.90
16863;DHT22;52193;48.216;-1.698;2023-03-14T11:06:08;14.20;99.90
16863;DHT22;52193;48.216;-1.698;2023-03-14T11:08:44;14.30;99.90
16863;DHT22;52193;48.216;-1.698;2023-03-14T11:11:18;14.50;99.90
16863;DHT22;52193;48.216;-1.698;2023-03-14T11:13:54;14.60;99.90
16863;DHT22;52193;48.216;-1.698;2023-03-14T11:16:31;14.70;99.90
16863;DHT22;52193;48.216;-1.698;2023-03-14T11:21:57;15.00;99.90
16863;DHT22;52193;48.216;-1.698;2023-03-14T11:24:45;15.10;99.90
16863;DHT22;52193;48.216;-1.698;2023-03-14T11:27:17;15.30;99.90
16863;DHT22;52193;48.216;-1.698;2023-03-14T11:29:54;15.30;99.90
16863;DHT22;52193;48.216;-1.698;2023-03-14T11:32:38;15.20;99.90
16863;DHT22;52193;48.216;-1.698;2023-03-14T11:35:16;15.30;99.90
16863;DHT22;52193;48.216;-1.698;2023-03-14T11:37:46;15.20;99.20
16863;DHT22;52193;48.216;-1.698;2023-03-14T11:40:21;15.30;98.50
16863;DHT22;52193;48.216;-1.698;2023-03-14T11:42:55;15.30;98.10
16863;DHT22;52193;48.216;-1.698;2023-03-14T11:45:29;15.50;97.90
16863;DHT22;52193;48.216;-1.698;2023-03-14T11:48:12;15.60;97.60
16863;DHT22;52193;48.216;-1.698;2023-03-14T11:50:42;15.50;97.10
16863;DHT22;52193;48.216;-1.698;2023-03-14T11:53:14;15.50;96.50
16863;DHT22;52193;48.216;-1.698;2023-03-14T11:55:45;15.50;96.60
16863;DHT22;52193;48.216;-1.698;2023-03-14T11:58:15;15.70;96.30
16863;DHT22;52193;48.216;-1.698;2023-03-14T12:00:45;15.70;95.80
16863;DHT22;52193;48.216;-1.698;2023-03-14T12:03:19;15.70;95.30
16863;DHT22;52193;48.216;-1.698;2023-03-14T12:06:02;15.80;95.40
16863;DHT22;52193;48.216;-1.698;2023-03-14T12:08:47;15.90;94.70
16863;DHT22;52193;48.216;-1.698;2023-03-14T12:11:27;15.90;94.90
16863;DHT22;52193;48.216;-1.698;2023-03-14T12:13:55;16.00;94.90
16863;DHT22;52193;48.216;-1.698;2023-03-14T12:16:40;16.30;95.00
16863;DHT22;52193;48.216;-1.698;2023-03-14T12:19:29;16.50;95.10
16863;DHT22;52193;48.216;-1.698;2023-03-14T12:22:00;16.50;93.90
16863;DHT22;52193;48.216;-1.698;2023-03-14T12:24:30;16.40;93.20
16863;DHT22;52193;48.216;-1.698;2023-03-14T12:27:03;16.40;92.70
16863;DHT22;52193;48.216;-1.698;2023-03-14T12:29:31;16.40;92.20
16863;DHT22;52193;48.216;-1.698;2023-03-14T12:32:09;16.50;92.10
16863;DHT22;52193;48.216;-1.698;2023-03-14T12:34:47;16.80;92.40
16863;DHT22;52193;48.216;-1.698;2023-03-14T12:37:26;17.00;92.40
16863;DHT22;52193;48.216;-1.698;2023-03-14T12:40:11;16.90;92.00
16863;DHT22;52193;48.216;-1.698;2023-03-14T12:42:57;16.80;92.30
16863;DHT22;52193;48.216;-1.698;2023-03-14T12:45:28;16.90;92.60
16863;DHT22;52193;48.216;-1.698;2023-03-14T12:48:09;17.10;92.70
16863;DHT22;52193;48.216;-1.698;2023-03-14T12:50:42;17.30;92.60
16863;DHT22;52193;48.216;-1.698;2023-03-14T12:53:38;17.50;92.00
16863;DHT22;52193;48.216;-1.698;2023-03-14T12:59:10;17.90;91.30
16863;DHT22;52193;48.216;-1.698;2023-03-14T13:01:47;17.80;91.00
16863;DHT22;52193;48.216;-1.698;2023-03-14T13:04:20;17.70;92.10
16863;DHT22;52193;48.216;-1.698;2023-03-14T13:06:54;17.50;92.80
16863;DHT22;52193;48.216;-1.698;2023-03-14T13:09:45;17.70;93.10
16863;DHT22;52193;48.216;-1.698;2023-03-14T13:12:17;18.00;93.20
16863;DHT22;52193;48.216;-1.698;2023-03-14T13:14:48;18.50;93.10
16863;DHT22;52193;48.216;-1.698;2023-03-14T13:17:23;18.50;92.50
16863;DHT22;52193;48.216;-1.698;2023-03-14T13:19:53;18.50;92.70
16863;DHT22;52193;48.216;-1.698;2023-03-14T13:22:24;18.20;93.60
16863;DHT22;52193;48.216;-1.698;2023-03-14T13:24:59;18.10;94.30
16863;DHT22;52193;48.216;-1.698;2023-03-14T13:27:27;18.00;94.80
16863;DHT22;52193;48.216;-1.698;2023-03-14T13:35:57;18.10;95.40
16863;DHT22;52193;48.216;-1.698;2023-03-14T13:38:26;18.70;95.40
16863;DHT22;52193;48.216;-1.698;2023-03-14T13:40:55;19.50;95.20
16863;DHT22;52193;48.216;-1.698;2023-03-14T13:43:27;19.70;94.50
16863;DHT22;52193;48.216;-1.698;2023-03-14T13:46:01;20.40;93.80
16863;DHT22;52193;48.216;-1.698;2023-03-14T13:48:31;21.20;93.40
16863;DHT22;52193;48.216;-1.698;2023-03-14T13:51:03;21.90;92.70
16863;DHT22;52193;48.216;-1.698;2023-03-14T13:53:31;22.50;92.00
16863;DHT22;52193;48.216;-1.698;2023-03-14T13:56:02;22.90;90.90
16863;DHT22;52193;48.216;-1.698;2023-03-14T13:58:31;23.60;90.40
16863;DHT22;52193;48.216;-1.698;2023-03-14T14:01:06;23.90;88.30
16863;DHT22;52193;48.216;-1.698;2023-03-14T14:03:38;24.50;88.20
16863;DHT22;52193;48.216;-1.698;2023-03-14T14:06:16;24.90;85.00
16863;DHT22;52193;48.216;-1.698;2023-03-14T14:08:46;25.10;83.20
16863;DHT22;52193;48.216;-1.698;2023-03-14T14:11:19;25.60;82.00
16863;DHT22;52193;48.216;-1.698;2023-03-14T14:13:48;26.30;80.90
16863;DHT22;52193;48.216;-1.698;2023-03-14T14:16:16;26.90;78.50
16863;DHT22;52193;48.216;-1.698;2023-03-14T14:18:47;27.20;76.90
16863;DHT22;52193;48.216;-1.698;2023-03-14T14:21:15;27.70;75.50
16863;DHT22;52193;48.216;-1.698;2023-03-14T14:23:42;27.60;73.80
16863;DHT22;52193;48.216;-1.698;2023-03-14T14:26:15;28.20;73.70
16863;DHT22;52193;48.216;-1.698;2023-03-14T14:28:43;29.00;72.40
16863;DHT22;52193;48.216;-1.698;2023-03-14T14:31:19;29.90;72.00
16863;DHT22;52193;48.216;-1.698;2023-03-14T14:33:54;30.50;70.40
16863;DHT22;52193;48.216;-1.698;2023-03-14T14:36:25;30.60;67.30
16863;DHT22;52193;48.216;-1.698;2023-03-14T14:38:54;30.30;66.10
16863;DHT22;52193;48.216;-1.698;2023-03-14T14:41:27;31.00;65.80
16863;DHT22;52193;48.216;-1.698;2023-03-14T14:43:55;31.50;63.80
16863;DHT22;52193;48.216;-1.698;2023-03-14T14:46:22;32.30;62.60
16863;DHT22;52193;48.216;-1.698;2023-03-14T14:48:49;32.80;61.90
16863;DHT22;52193;48.216;-1.698;2023-03-14T14:51:30;33.20;60.10
16863;DHT22;52193;48.216;-1.698;2023-03-14T14:54:10;33.00;57.70
16863;DHT22;52193;48.216;-1.698;2023-03-14T14:56:38;32.90;56.30
16863;DHT22;52193;48.216;-1.698;2023-03-14T14:59:06;33.70;57.20
16863;DHT22;52193;48.216;-1.698;2023-03-14T15:01:36;34.20;56.60
16863;DHT22;52193;48.216;-1.698;2023-03-14T15:04:10;34.40;55.50
16863;DHT22;52193;48.216;-1.698;2023-03-14T15:06:42;34.00;55.40
16863;DHT22;52193;48.216;-1.698;2023-03-14T15:09:10;34.70;55.60
16863;DHT22;52193;48.216;-1.698;2023-03-14T15:11:37;35.30;55.00
16863;DHT22;52193;48.216;-1.698;2023-03-14T15:14:04;35.80;54.30
16863;DHT22;52193;48.216;-1.698;2023-03-14T15:16:32;35.80;52.50
16863;DHT22;52193;48.216;-1.698;2023-03-14T15:19:01;35.90;52.70
16863;DHT22;52193;48.216;-1.698;2023-03-14T15:21:31;36.10;52.00
16863;DHT22;52193;48.216;-1.698;2023-03-14T15:23:59;35.70;51.40
16863;DHT22;52193;48.216;-1.698;2023-03-14T15:26:27;35.80;52.20
16863;DHT22;52193;48.216;-1.698;2023-03-14T15:28:54;36.10;52.30
16863;DHT22;52193;48.216;-1.698;2023-03-14T15:31:21;35.70;51.60
16863;DHT22;52193;48.216;-1.698;2023-03-14T15:33:49;35.40;51.30
16863;DHT22;52193;48.216;-1.698;2023-03-14T15:36:22;34.80;50.70
16863;DHT22;52193;48.216;-1.698;2023-03-14T15:38:50;34.60;50.80
16863;DHT22;52193;48.216;-1.698;2023-03-14T15:41:19;34.30;51.00
16863;DHT22;52193;48.216;-1.698;2023-03-14T15:43:46;34.20;52.10
16863;DHT22;52193;48.216;-1.698;2023-03-14T15:46:13;34.00;51.60